createdAt,value
2018-12-20T00:00:19.785Z,-0.80
2018-12-20T00:02:48.316Z,-1.03
2018-12-20T00:05:16.507Z,-0.87
2018-12-20T00:07:44.801Z,-0.78
2018-12-20T00:10:12.980Z,-0.78
2018-12-20T00:12:41.524Z,-0.81
2018-12-20T00:15:09.982Z,-0.65
2018-12-20T00:17:43.791Z,-0.87
2018-12-20T00:20:11.923Z,-1.01
2018-12-20T00:22:40.182Z,-1.12
2018-12-20T00:25:09.654Z,-1.22
2018-12-20T00:27:37.878Z,-1.20
2018-12-20T00:30:06.219Z,-1.04
2018-12-20T00:32:34.501Z,-1.16
2018-12-20T00:35:02.943Z,-0.79
2018-12-20T00:37:31.223Z,-0.87
2018-12-20T00:40:06.249Z,-0.51
2018-12-20T00:42:29.793Z,-0.42
2018-12-20T00:44:58.731Z,-0.40
2018-12-20T00:47:27.054Z,-0.59
2018-12-20T00:49:55.749Z,-0.69
2018-12-20T00:52:23.967Z,-0.49
2018-12-20T00:54:52.136Z,-0.82
2018-12-20T00:57:20.359Z,-0.86
2018-12-20T00:59:48.717Z,-1.05
2018-12-20T01:02:16.990Z,-0.86
2018-12-20T01:04:45.214Z,-1.01
2018-12-20T01:07:13.474Z,-1.08
2018-12-20T01:09:41.693Z,-1.01
2018-12-20T01:12:09.948Z,-0.86
2018-12-20T01:14:45.174Z,-1.01
2018-12-20T01:17:08.551Z,-1.08
2018-12-20T01:19:36.757Z,-1.06
2018-12-20T01:22:04.932Z,-0.93
2018-12-20T01:24:33.226Z,-0.96
2018-12-20T01:27:01.443Z,-0.98
2018-12-20T01:29:29.651Z,-1.10
2018-12-20T01:31:57.813Z,-0.86
2018-12-20T01:34:26.058Z,-0.68
2018-12-20T01:36:54.564Z,-0.28
2018-12-20T01:39:23.072Z,-0.67
2018-12-20T01:41:51.391Z,-0.98
2018-12-20T01:44:19.641Z,-1.44
2018-12-20T01:46:47.893Z,-1.49
2018-12-20T01:49:16.147Z,-1.27
2018-12-20T01:51:44.655Z,-0.82
2018-12-20T01:54:12.936Z,-0.75
2018-12-20T01:56:41.392Z,-0.84
2018-12-20T01:59:09.822Z,-0.93
2018-12-20T02:01:38.270Z,-0.87
2018-12-20T02:04:06.800Z,-1.15
2018-12-20T02:06:35.199Z,-1.19
2018-12-20T02:09:05.902Z,-1.42
2018-12-20T02:11:34.190Z,-1.81
2018-12-20T02:14:02.501Z,-1.88
2018-12-20T02:16:30.712Z,-1.99
2018-12-20T02:18:58.961Z,-2.10
2018-12-20T02:21:27.164Z,-2.04
2018-12-20T02:23:55.500Z,-1.97
2018-12-20T02:26:24.034Z,-1.82
2018-12-20T02:28:52.346Z,-1.55
2018-12-20T02:31:20.656Z,-1.50
2018-12-20T02:33:48.971Z,-1.22
2018-12-20T02:36:17.358Z,-1.06
2018-12-20T02:38:46.315Z,-0.73
2018-12-20T02:41:15.253Z,-0.72
2018-12-20T02:43:43.440Z,-0.94
2018-12-20T02:46:11.648Z,-1.29
2018-12-20T02:48:39.906Z,-1.41
2018-12-20T02:51:08.065Z,-1.33
2018-12-20T02:53:36.253Z,-1.46
2018-12-20T02:56:04.615Z,-1.30
2018-12-20T02:58:32.901Z,-1.35
2018-12-20T03:01:01.004Z,-1.42
2018-12-20T03:03:29.088Z,-1.34
2018-12-20T03:05:57.910Z,-1.26
2018-12-20T03:08:26.162Z,-1.31
2018-12-20T03:10:54.451Z,-1.35
2018-12-20T03:13:22.554Z,-1.41
2018-12-20T03:15:50.750Z,-1.93
2018-12-20T03:18:19.131Z,-1.70
2018-12-20T03:20:47.554Z,-1.49
2018-12-20T03:23:15.763Z,-1.43
2018-12-20T03:25:43.945Z,-1.26
2018-12-20T03:28:12.188Z,-1.34
2018-12-20T03:30:40.522Z,-1.36
2018-12-20T03:33:10.490Z,-1.38
2018-12-20T03:35:39.011Z,-1.43
2018-12-20T03:38:07.204Z,-1.59
2018-12-20T03:40:35.715Z,-1.84
2018-12-20T03:43:04.232Z,-2.12
2018-12-20T03:45:32.576Z,-2.26
2018-12-20T03:48:00.989Z,-2.35
2018-12-20T03:50:29.422Z,-2.43
2018-12-20T03:52:57.801Z,-2.48
2018-12-20T03:55:26.029Z,-2.48
2018-12-20T03:57:54.222Z,-2.60
2018-12-20T04:00:22.452Z,-2.50
2018-12-20T04:02:50.687Z,-2.63
2018-12-20T04:05:19.160Z,-2.65
2018-12-20T04:07:47.384Z,-2.61
2018-12-20T04:10:16.410Z,-2.61
2018-12-20T04:12:44.826Z,-2.59
2018-12-20T04:15:13.436Z,-2.58
2018-12-20T04:17:41.618Z,-2.62
2018-12-20T04:20:10.302Z,-2.37
2018-12-20T04:22:38.671Z,-1.95
2018-12-20T04:25:07.030Z,-1.57
2018-12-20T04:27:38.626Z,-1.71
2018-12-20T04:30:07.342Z,-1.81
2018-12-20T04:32:36.333Z,-2.06
2018-12-20T04:35:05.555Z,-2.17
2018-12-20T04:37:34.068Z,-1.95
2018-12-20T04:40:02.455Z,-1.64
2018-12-20T04:42:30.829Z,-1.91
2018-12-20T04:44:59.106Z,-1.90
2018-12-20T04:47:28.111Z,-1.94
2018-12-20T04:49:56.762Z,-1.79
2018-12-20T04:52:25.685Z,-1.32
2018-12-20T04:54:53.826Z,-1.05
2018-12-20T04:57:22.905Z,-1.13
2018-12-20T04:59:52.905Z,-1.47
2018-12-20T05:02:22.057Z,-1.30
2018-12-20T05:04:50.485Z,-1.27
2018-12-20T05:07:18.758Z,-1.62
2018-12-20T05:09:47.240Z,-2.01
2018-12-20T05:12:15.475Z,-2.17
2018-12-20T05:14:43.809Z,-2.29
2018-12-20T05:17:12.367Z,-2.27
2018-12-20T05:19:40.852Z,-2.34
2018-12-20T05:22:09.258Z,-2.18
2018-12-20T05:24:37.528Z,-2.28
2018-12-20T05:27:05.794Z,-2.45
2018-12-20T05:29:34.249Z,-2.47
2018-12-20T05:32:02.506Z,-2.37
2018-12-20T05:34:30.810Z,-1.87
2018-12-20T05:37:01.942Z,-1.88
2018-12-20T05:39:30.323Z,-1.72
2018-12-20T05:41:58.622Z,-1.53
2018-12-20T05:44:27.850Z,-1.69
2018-12-20T05:46:56.083Z,-1.71
2018-12-20T05:49:25.770Z,-2.06
2018-12-20T05:51:54.561Z,-2.18
2018-12-20T05:54:24.829Z,-2.16
2018-12-20T05:56:58.688Z,-1.94
2018-12-20T05:59:28.596Z,-1.99
2018-12-20T06:01:57.699Z,-1.80
2018-12-20T06:04:26.225Z,-1.51
2018-12-20T06:06:55.016Z,-1.60
2018-12-20T06:09:24.019Z,-1.66
2018-12-20T06:14:36.901Z,-0.87
2018-12-20T06:17:07.941Z,-0.91
2018-12-20T06:19:36.413Z,-0.57
2018-12-20T06:22:04.737Z,-0.76
2018-12-20T06:24:34.959Z,-0.87
2018-12-20T06:27:07.948Z,-0.82
2018-12-20T06:29:38.825Z,-0.95
2018-12-20T06:32:07.888Z,-0.72
2018-12-20T06:34:36.045Z,-0.89
2018-12-20T06:37:04.202Z,-0.92
2018-12-20T06:39:33.324Z,-1.17
2018-12-20T06:42:01.644Z,-1.42
2018-12-20T06:44:29.778Z,-1.20
2018-12-20T06:46:57.885Z,-1.44
2018-12-20T06:49:34.773Z,-1.47
2018-12-20T06:52:09.497Z,-1.19
2018-12-20T06:54:42.357Z,-1.14
2018-12-20T06:57:13.393Z,-1.07
2018-12-20T06:59:45.690Z,-1.10
2018-12-20T07:02:14.089Z,-1.00
2018-12-20T07:04:42.669Z,-0.83
2018-12-20T07:07:11.250Z,-0.94
2018-12-20T07:09:39.582Z,-1.00
2018-12-20T07:12:07.805Z,-1.03
2018-12-20T07:14:42.848Z,-1.24
2018-12-20T07:17:14.319Z,-1.13
2018-12-20T07:19:45.212Z,-1.02
2018-12-20T07:22:13.626Z,-1.05
2018-12-20T07:24:42.062Z,-0.76
2018-12-20T07:27:10.492Z,-0.59
2018-12-20T07:29:39.802Z,-0.76
2018-12-20T07:32:08.198Z,-0.42
2018-12-20T07:34:36.851Z,-0.66
2018-12-20T07:37:05.145Z,-0.37
2018-12-20T07:39:33.452Z,-0.25
2018-12-20T07:42:02.481Z,-0.21
2018-12-20T07:44:34.079Z,-0.65
2018-12-20T07:47:07.753Z,-0.68
2018-12-20T07:49:35.988Z,-0.70
2018-12-20T07:52:07.086Z,-0.67
2018-12-20T07:54:35.476Z,-0.60
2018-12-20T07:57:06.625Z,-0.50
2018-12-20T07:59:37.200Z,-0.26
2018-12-20T08:02:06.164Z,-0.60
2018-12-20T08:04:35.173Z,-0.68
2018-12-20T08:07:03.487Z,-0.88
2018-12-20T08:09:31.845Z,-0.82
2018-12-20T08:12:01.305Z,-0.80
2018-12-20T08:14:29.479Z,-0.60
2018-12-20T08:16:58.009Z,-0.40
2018-12-20T08:19:26.157Z,-0.68
2018-12-20T08:21:56.507Z,-0.64
2018-12-20T08:24:24.606Z,-0.77
2018-12-20T08:26:57.232Z,-0.64
2018-12-20T08:29:26.128Z,-0.62
2018-12-20T08:31:55.336Z,-0.49
2018-12-20T08:34:25.475Z,-0.25
2018-12-20T08:36:55.133Z,-0.31
2018-12-20T08:39:23.351Z,-0.19
2018-12-20T08:41:52.060Z,-0.26
2018-12-20T08:44:22.611Z,0.08
2018-12-20T08:46:54.467Z,-0.42
2018-12-20T08:49:21.213Z,-0.61
2018-12-20T08:51:50.373Z,-0.57
2018-12-20T08:54:18.522Z,-0.66
2018-12-20T08:56:46.670Z,-0.64
2018-12-20T08:59:15.996Z,-0.61
2018-12-20T09:01:46.436Z,0.05
2018-12-20T09:04:16.251Z,0.02
2018-12-20T09:06:44.713Z,0.27
2018-12-20T09:09:14.894Z,-0.35
2018-12-20T09:11:46.874Z,-0.13
2018-12-20T09:14:17.432Z,-0.57
2018-12-20T09:16:50.004Z,-0.80
2018-12-20T09:19:19.120Z,-0.08
2018-12-20T09:21:50.987Z,0.16
2018-12-20T09:24:23.012Z,0.17
2018-12-20T09:26:54.660Z,0.04
2018-12-20T09:29:33.170Z,0.19
2018-12-20T09:32:06.277Z,0.25
2018-12-20T09:34:34.720Z,0.04
2018-12-20T09:37:03.719Z,-0.09
2018-12-20T09:39:34.941Z,-0.27
2018-12-20T09:42:03.157Z,-0.47
2018-12-20T09:47:18.870Z,-0.08
2018-12-20T09:49:48.833Z,0.22
2018-12-20T09:52:24.906Z,0.20
2018-12-20T09:54:57.589Z,0.05
2018-12-20T09:57:30.334Z,-0.39
2018-12-20T09:59:58.770Z,-0.54
2018-12-20T10:02:26.891Z,-0.62
2018-12-20T10:04:55.287Z,-0.49
2018-12-20T10:07:27.814Z,-0.52
2018-12-20T10:09:56.456Z,-0.20
2018-12-20T10:12:24.712Z,-0.41
2018-12-20T10:14:53.076Z,-0.34
2018-12-20T10:17:23.574Z,-0.52
2018-12-20T10:19:52.787Z,-0.75
2018-12-20T10:22:21.616Z,-0.48
2018-12-20T10:24:52.212Z,0.07
2018-12-20T10:27:20.435Z,0.00
2018-12-20T10:29:52.414Z,-0.04
2018-12-20T10:32:20.747Z,-0.13
2018-12-20T10:34:48.939Z,-0.35
2018-12-20T10:37:17.252Z,-0.53
2018-12-20T10:39:46.296Z,-0.35
2018-12-20T10:42:14.451Z,-0.38
2018-12-20T10:44:43.129Z,-0.28
2018-12-20T10:47:17.382Z,-1.18
2018-12-20T10:49:45.565Z,-0.32
2018-12-20T10:52:13.720Z,-0.33
2018-12-20T10:54:42.637Z,-0.22
2018-12-20T10:57:13.398Z,-0.20
2018-12-20T10:59:42.862Z,-0.32
2018-12-20T11:02:16.632Z,-0.39
2018-12-20T11:04:50.179Z,-0.12
2018-12-20T11:07:24.803Z,-0.10
2018-12-20T11:09:58.814Z,0.13
2018-12-20T11:12:32.243Z,0.00
2018-12-20T11:15:00.435Z,0.08
2018-12-20T11:17:37.050Z,0.35
2018-12-20T11:20:01.038Z,0.24
2018-12-20T11:22:29.760Z,0.15
2018-12-20T11:24:59.165Z,0.27
2018-12-20T11:27:27.551Z,-0.28
2018-12-20T11:29:56.040Z,0.38
2018-12-20T11:32:24.982Z,0.16
2018-12-20T11:34:54.043Z,-0.18
2018-12-20T11:37:22.424Z,0.07
2018-12-20T11:39:59.206Z,0.33
2018-12-20T11:42:23.468Z,0.26
2018-12-20T11:44:52.300Z,0.01
2018-12-20T11:47:26.023Z,-0.09
2018-12-20T11:49:54.268Z,0.15
2018-12-20T11:52:22.595Z,-0.20
2018-12-20T11:54:54.128Z,-0.13
2018-12-20T11:57:22.403Z,-0.02
2018-12-20T11:59:52.083Z,-0.13
2018-12-20T12:02:24.674Z,-0.03
2018-12-20T12:04:51.387Z,0.32
2018-12-20T12:07:19.710Z,0.23
2018-12-20T12:09:48.468Z,0.22
2018-12-20T12:12:16.658Z,-0.18
2018-12-20T12:14:44.990Z,-0.02
2018-12-20T12:17:13.191Z,0.22
2018-12-20T12:19:41.432Z,0.33
2018-12-20T12:22:09.560Z,0.17
2018-12-20T12:24:37.787Z,0.26
2018-12-20T12:27:06.424Z,0.15
2018-12-20T12:29:34.949Z,0.08
2018-12-20T12:32:03.203Z,0.08
2018-12-20T12:34:31.512Z,0.21
2018-12-20T12:36:59.674Z,0.14
2018-12-20T12:39:28.098Z,0.19
2018-12-20T12:41:56.212Z,0.25
2018-12-20T12:44:24.376Z,0.30
2018-12-20T12:46:53.029Z,0.40
2018-12-20T12:49:24.070Z,0.20
2018-12-20T12:51:53.219Z,0.08
2018-12-20T12:54:21.969Z,0.48
2018-12-20T12:56:50.729Z,0.45
2018-12-20T12:59:19.115Z,0.49
2018-12-20T13:01:48.016Z,0.25
2018-12-20T13:04:16.265Z,0.22
2018-12-20T13:06:44.998Z,0.17
2018-12-20T13:09:13.145Z,0.07
2018-12-20T13:11:41.320Z,-0.13
2018-12-20T13:14:09.611Z,-0.15
2018-12-20T13:16:38.707Z,-0.13
2018-12-20T13:19:07.369Z,-0.23
2018-12-20T13:21:36.051Z,-0.13
2018-12-20T13:24:04.659Z,-0.26
2018-12-20T13:26:32.898Z,-0.21
2018-12-20T13:29:01.014Z,-0.13
2018-12-20T13:31:29.224Z,-0.17
2018-12-20T13:33:57.331Z,-0.20
2018-12-20T13:36:25.456Z,-0.29
2018-12-20T13:38:54.232Z,-0.07
2018-12-20T13:41:22.670Z,-0.35
2018-12-20T13:43:50.836Z,-0.41
2018-12-20T13:46:19.036Z,-0.45
2018-12-20T13:48:47.157Z,-0.63
2018-12-20T13:51:15.291Z,-0.64
2018-12-20T13:53:43.480Z,-0.66
2018-12-20T13:56:11.533Z,-0.76
2018-12-20T13:58:39.805Z,-0.73
2018-12-20T14:01:08.065Z,-0.67
2018-12-20T14:03:36.617Z,-0.61
2018-12-20T14:06:06.586Z,-0.63
2018-12-20T14:08:34.809Z,-0.39
2018-12-20T14:11:03.275Z,-0.24
2018-12-20T14:13:32.162Z,-0.15
2018-12-20T14:16:00.730Z,-0.40
2018-12-20T14:18:31.174Z,-0.70
2018-12-20T14:21:00.589Z,-0.55
2018-12-20T14:23:29.284Z,-0.37
2018-12-20T14:25:58.607Z,-0.51
2018-12-20T14:28:27.293Z,-0.62
2018-12-20T14:30:55.604Z,-0.86
2018-12-20T14:33:23.827Z,-0.81
2018-12-20T14:38:35.667Z,-0.76
2018-12-20T14:41:03.937Z,-0.88
2018-12-20T14:43:32.351Z,-0.75
2018-12-20T14:46:00.535Z,-0.84
2018-12-20T14:48:30.150Z,-0.72
2018-12-20T14:50:59.756Z,-0.89
2018-12-20T14:53:28.843Z,-0.99
2018-12-20T14:55:57.527Z,-0.82
2018-12-20T14:58:25.850Z,-0.92
2018-12-20T15:00:55.555Z,-1.21
2018-12-20T15:03:24.730Z,-1.13
2018-12-20T15:05:54.181Z,-1.19
2018-12-20T15:08:23.050Z,-1.12
2018-12-20T15:10:51.812Z,-1.21
2018-12-20T15:13:20.498Z,-1.21
2018-12-20T15:15:49.361Z,-1.43
2018-12-20T15:18:18.241Z,-1.16
2018-12-20T15:20:46.973Z,-1.23
2018-12-20T15:23:16.067Z,-1.49
2018-12-20T15:25:46.063Z,-1.32
2018-12-20T15:28:15.138Z,-1.13
2018-12-20T15:30:44.902Z,-0.92
2018-12-20T15:33:14.317Z,-1.00
2018-12-20T15:35:43.268Z,-0.92
2018-12-20T15:38:12.270Z,-0.70
2018-12-20T15:40:42.182Z,-0.64
2018-12-20T15:43:10.961Z,-0.41
2018-12-20T15:45:42.718Z,-0.55
2018-12-20T15:48:11.464Z,-0.82
2018-12-20T15:50:39.887Z,-0.87
2018-12-20T15:53:08.696Z,-0.78
2018-12-20T15:55:37.306Z,-0.72
2018-12-20T15:58:06.651Z,-0.77
2018-12-20T16:00:35.280Z,-0.58
2018-12-20T16:03:03.867Z,-0.82
2018-12-20T16:05:34.563Z,-0.59
2018-12-20T16:08:08.086Z,-0.59
2018-12-20T16:10:36.830Z,-0.82
2018-12-20T16:13:05.254Z,-0.99
2018-12-20T16:15:33.448Z,-0.88
2018-12-20T16:18:02.380Z,-0.63
2018-12-20T16:20:30.900Z,-0.86
2018-12-20T16:23:00.360Z,-0.83
2018-12-20T16:25:29.421Z,-0.58
2018-12-20T16:27:57.850Z,-0.74
2018-12-20T16:30:27.851Z,-0.80
2018-12-20T16:32:56.241Z,-0.87
2018-12-20T16:35:24.485Z,-0.91
2018-12-20T16:37:52.710Z,-0.82
2018-12-20T16:40:21.633Z,-0.83
2018-12-20T16:42:50.090Z,-1.05
2018-12-20T16:45:18.446Z,-0.96
2018-12-20T16:47:47.296Z,-0.89
2018-12-20T16:50:16.460Z,-0.97
2018-12-20T16:52:44.676Z,-0.94
2018-12-20T16:55:13.343Z,-1.02
2018-12-20T16:57:41.970Z,-0.80
2018-12-20T17:00:13.903Z,-0.96
2018-12-20T17:02:42.579Z,-0.63
2018-12-20T17:05:10.879Z,-0.44
2018-12-20T17:07:39.470Z,-0.48
2018-12-20T17:10:08.533Z,-0.56
2018-12-20T17:12:36.894Z,-0.64
2018-12-20T17:15:07.064Z,-0.53
2018-12-20T17:17:35.384Z,-0.96
2018-12-20T17:20:04.944Z,-0.74
2018-12-20T17:22:33.374Z,-0.84
2018-12-20T17:25:01.456Z,-0.13
2018-12-20T17:27:30.233Z,-0.49
2018-12-20T17:29:58.513Z,-0.42
2018-12-20T17:32:27.284Z,0.10
2018-12-20T17:34:56.000Z,-0.02
2018-12-20T17:37:24.773Z,-0.08
2018-12-20T17:39:53.378Z,0.04
2018-12-20T17:42:21.844Z,-0.19
2018-12-20T17:44:50.147Z,-0.34
2018-12-20T17:47:20.144Z,-0.51
2018-12-20T17:49:48.701Z,-0.73
2018-12-20T17:52:17.064Z,-0.51
2018-12-20T17:54:49.316Z,-0.68
2018-12-20T17:57:17.573Z,-0.80
2018-12-20T17:59:45.788Z,-0.85
2018-12-20T18:02:14.618Z,-0.87
2018-12-20T18:04:43.083Z,-0.68
2018-12-20T18:07:12.108Z,-0.76
2018-12-20T18:09:41.144Z,-0.92
2018-12-20T18:12:10.412Z,-0.99
2018-12-20T18:14:41.449Z,-1.25
2018-12-20T18:17:11.043Z,-1.21
2018-12-20T18:19:39.646Z,-1.31
2018-12-20T18:22:09.789Z,-1.35
2018-12-20T18:24:39.889Z,-1.22
2018-12-20T18:27:10.095Z,-1.44
2018-12-20T18:29:38.818Z,-1.72
2018-12-20T18:32:08.490Z,-1.58
2018-12-20T18:34:37.403Z,-1.49
2018-12-20T18:37:06.498Z,-1.35
2018-12-20T18:39:35.927Z,-1.39
2018-12-20T18:42:07.768Z,-1.34
2018-12-20T18:44:36.086Z,-1.53
2018-12-20T18:47:04.490Z,-1.35
2018-12-20T18:49:33.131Z,-1.77
2018-12-20T18:52:01.359Z,-1.50
2018-12-20T18:54:29.661Z,-1.20
2018-12-20T18:56:57.878Z,-1.00
2018-12-20T18:59:26.718Z,-1.17
2018-12-20T19:01:55.188Z,-1.47
2018-12-20T19:04:23.375Z,-1.65
2018-12-20T19:06:51.728Z,-1.82
2018-12-20T19:09:21.536Z,-1.83
2018-12-20T19:11:50.908Z,-1.79
2018-12-20T19:14:19.550Z,-1.87
2018-12-20T19:16:49.585Z,-1.69
2018-12-20T19:19:18.495Z,-1.65
2018-12-20T19:21:48.163Z,-1.60
2018-12-20T19:24:18.441Z,-1.72
2018-12-20T19:26:48.394Z,-1.71
2018-12-20T19:29:19.394Z,-1.75
2018-12-20T19:31:50.374Z,-1.89
2018-12-20T19:34:18.874Z,-1.71
2018-12-20T19:36:48.140Z,-1.67
2018-12-20T19:39:18.264Z,-1.96
2018-12-20T19:41:47.525Z,-1.86
2018-12-20T19:44:15.855Z,-2.11
2018-12-20T19:46:44.152Z,-2.19
2018-12-20T19:49:12.360Z,-2.24
2018-12-20T19:51:40.571Z,-2.13
2018-12-20T19:54:08.737Z,-1.51
2018-12-20T19:56:37.678Z,-1.75
2018-12-20T19:59:06.286Z,-1.54
2018-12-20T20:01:34.872Z,-1.83
2018-12-20T20:04:03.427Z,-1.71
2018-12-20T20:06:31.597Z,-1.77
2018-12-20T20:09:00.071Z,-1.93
2018-12-20T20:11:29.590Z,-2.17
2018-12-20T20:13:58.877Z,-2.29
2018-12-20T20:16:27.284Z,-2.06
2018-12-20T20:18:56.669Z,-2.07
2018-12-20T20:21:24.864Z,-2.29
2018-12-20T20:23:53.598Z,-2.33
2018-12-20T20:26:23.055Z,-2.46
2018-12-20T20:28:51.262Z,-2.19
2018-12-20T20:31:19.582Z,-2.11
2018-12-20T20:33:48.395Z,-1.90
2018-12-20T20:36:16.591Z,-2.17
2018-12-20T20:38:44.716Z,-1.91
2018-12-20T20:41:14.487Z,-2.04
2018-12-20T20:43:43.087Z,-1.91
2018-12-20T20:46:13.003Z,-1.95
2018-12-20T20:48:41.590Z,-1.86
2018-12-20T20:51:10.128Z,-1.74
2018-12-20T20:53:38.393Z,-1.86
2018-12-20T20:56:06.630Z,-2.01
2018-12-20T20:58:35.100Z,-2.08
2018-12-20T21:01:04.623Z,-2.26
2018-12-20T21:03:34.009Z,-2.10
2018-12-20T21:06:03.343Z,-2.16
2018-12-20T21:08:32.466Z,-2.16
2018-12-20T21:11:00.778Z,-2.26
2018-12-20T21:13:29.098Z,-2.36
2018-12-20T21:15:58.134Z,-2.47
2018-12-20T21:18:26.731Z,-2.40
2018-12-20T21:20:55.053Z,-2.31
2018-12-20T21:23:23.201Z,-1.92
2018-12-20T21:25:51.475Z,-1.70
2018-12-20T21:28:19.981Z,-2.00
2018-12-20T21:30:48.352Z,-2.12
2018-12-20T21:33:20.396Z,-1.94
2018-12-20T21:35:48.628Z,-2.15
2018-12-20T21:38:17.105Z,-2.25
2018-12-20T21:40:46.110Z,-2.38
2018-12-20T21:43:14.889Z,-2.52
2018-12-20T21:45:47.941Z,-2.50
2018-12-20T21:48:16.553Z,-2.53
2018-12-20T21:50:46.054Z,-2.11
2018-12-20T21:53:21.019Z,-2.09
2018-12-20T21:55:51.099Z,-1.89
2018-12-20T21:58:24.670Z,-1.91
2018-12-20T22:00:53.474Z,-1.82
2018-12-20T22:03:23.116Z,-1.75
2018-12-20T22:05:51.344Z,-1.24
2018-12-20T22:08:19.972Z,-1.23
2018-12-20T22:10:48.206Z,-1.39
2018-12-20T22:13:17.732Z,-1.52
2018-12-20T22:15:45.883Z,-1.37
2018-12-20T22:18:14.013Z,-1.56
2018-12-20T22:20:47.301Z,-1.38
2018-12-20T22:23:12.431Z,-1.37
2018-12-20T22:25:40.609Z,-1.41
2018-12-20T22:28:08.720Z,-1.79
2018-12-20T22:30:37.403Z,-1.72
2018-12-20T22:33:05.573Z,-1.54
2018-12-20T22:35:33.802Z,-1.66
2018-12-20T22:38:01.917Z,-1.69
2018-12-20T22:40:30.064Z,-1.42
2018-12-20T22:42:58.209Z,-1.39
2018-12-20T22:45:26.489Z,-1.42
2018-12-20T22:47:54.754Z,-1.27
2018-12-20T22:50:22.895Z,-1.25
2018-12-20T22:52:51.039Z,-1.33
2018-12-20T22:55:19.258Z,-1.71
2018-12-20T22:57:47.506Z,-1.59
2018-12-20T23:00:16.964Z,-1.41
2018-12-20T23:02:45.226Z,-1.52
2018-12-20T23:05:13.421Z,-1.61
2018-12-20T23:07:41.592Z,-1.36
2018-12-20T23:10:09.917Z,-1.21
2018-12-20T23:12:38.157Z,-1.46
2018-12-20T23:15:06.481Z,-1.87
2018-12-20T23:17:34.668Z,-1.81
2018-12-20T23:20:03.000Z,-1.64
2018-12-20T23:22:31.159Z,-1.62
2018-12-20T23:24:59.411Z,-1.74
2018-12-20T23:27:27.617Z,-1.85
2018-12-20T23:29:55.776Z,-1.91
2018-12-20T23:32:24.033Z,-1.92
2018-12-20T23:34:52.203Z,-1.91
2018-12-20T23:37:20.411Z,-1.83
2018-12-20T23:39:48.591Z,-2.22
2018-12-20T23:42:16.928Z,-2.35
2018-12-20T23:44:45.282Z,-2.61
2018-12-20T23:47:13.564Z,-2.72
2018-12-20T23:49:41.709Z,-2.62
2018-12-20T23:52:09.866Z,-2.63
2018-12-20T23:54:38.023Z,-2.67
2018-12-20T23:57:06.236Z,-2.49
2018-12-20T23:59:34.467Z,-2.63
